createdAt,value
2023-05-12T00:01:25.301Z,96.7
2023-05-12T00:06:31.661Z,96.7
2023-05-12T00:11:38.062Z,96.7
2023-05-12T00:16:44.593Z,96.7
2023-05-12T00:27:25.487Z,96.9
2023-05-12T00:37:48.266Z,97.0
2023-05-12T00:48:01.115Z,97.0
2023-05-12T00:53:45.105Z,96.9
2023-05-12T00:58:13.878Z,97.0
2023-05-12T01:03:20.319Z,97.7
2023-05-12T01:08:26.633Z,97.1
2023-05-12T01:13:33.135Z,97.3
2023-05-12T01:18:38.397Z,97.4
2023-05-12T01:23:46.506Z,97.4
2023-05-12T01:28:52.948Z,97.4
2023-05-12T01:33:59.444Z,97.4
2023-05-12T01:39:05.810Z,97.6
2023-05-12T01:44:13.136Z,97.7
2023-05-12T01:49:20.490Z,97.3
2023-05-12T01:54:26.888Z,97.7
2023-05-12T01:59:33.401Z,98.3
2023-05-12T02:04:39.754Z,98.1
2023-05-12T02:09:36.129Z,98.0
2023-05-12T02:14:54.115Z,98.4
2023-05-12T02:20:00.486Z,98.6
2023-05-12T02:25:06.867Z,98.8
2023-05-12T02:30:13.285Z,98.4
2023-05-12T02:35:19.631Z,98.7
2023-05-12T02:40:26.017Z,98.6
2023-05-12T02:45:22.433Z,99.0
2023-05-12T02:55:47.705Z,98.8
2023-05-12T03:01:06.659Z,98.6
2023-05-12T03:06:01.577Z,98.6
2023-05-12T03:11:07.968Z,99.0
2023-05-12T03:16:14.371Z,98.9
2023-05-12T03:21:10.721Z,99.1
2023-05-12T03:26:27.113Z,99.0
2023-05-12T03:31:35.170Z,99.3
2023-05-12T03:36:41.577Z,98.7
2023-05-12T03:41:47.956Z,99.3
2023-05-12T03:46:54.477Z,98.8
2023-05-12T03:52:01.508Z,99.4
2023-05-12T04:02:14.393Z,99.1
2023-05-12T04:07:58.704Z,99.7
2023-05-12T04:13:42.315Z,99.5
2023-05-12T04:18:49.828Z,99.6
2023-05-12T04:23:56.126Z,99.2
2023-05-12T04:29:02.499Z,99.6
2023-05-12T04:44:22.744Z,99.9
2023-05-12T04:49:29.197Z,99.9
2023-05-12T05:00:21.003Z,99.9
2023-05-12T05:09:54.734Z,99.8
2023-05-12T05:15:01.125Z,99.7
2023-05-12T05:20:11.823Z,99.6
2023-05-12T05:25:04.580Z,99.5
2023-05-12T05:30:35.020Z,99.6
2023-05-12T05:35:17.601Z,99.5
2023-05-12T05:40:44.895Z,99.6
2023-05-12T05:45:40.164Z,99.7
2023-05-12T05:50:46.604Z,99.7
2023-05-12T05:55:42.897Z,99.9
2023-05-12T06:00:49.275Z,99.9
2023-05-12T06:05:55.689Z,99.9
2023-05-12T06:11:12.086Z,99.9
2023-05-12T06:16:18.524Z,99.9
2023-05-12T06:21:14.879Z,99.9
2023-05-12T06:26:31.214Z,99.9
2023-05-12T06:31:27.649Z,99.8
2023-05-12T06:36:44.028Z,99.7
2023-05-12T06:41:50.574Z,99.8
2023-05-12T06:52:02.355Z,99.8
2023-05-12T06:57:09.665Z,99.8
2023-05-12T07:02:19.614Z,99.7
2023-05-12T07:07:15.995Z,99.6
2023-05-12T07:12:32.926Z,99.6
2023-05-12T07:18:03.525Z,99.6
2023-05-12T07:22:45.929Z,99.8
2023-05-12T07:27:52.191Z,99.9
2023-05-12T07:33:00.200Z,99.9
2023-05-12T07:38:30.564Z,99.9
2023-05-12T07:43:40.475Z,99.9
2023-05-12T07:48:22.832Z,99.9
2023-05-12T07:53:29.366Z,99.8
2023-05-12T07:58:35.913Z,99.6
2023-05-12T08:04:01.430Z,99.3
2023-05-12T08:13:44.877Z,98.9
2023-05-12T08:19:21.309Z,98.8
2023-05-12T08:24:11.199Z,98.8
2023-05-12T08:29:17.752Z,98.7
2023-05-12T08:34:13.948Z,98.6
2023-05-12T08:39:30.408Z,98.4
2023-05-12T08:44:35.798Z,98.5
2023-05-12T08:50:08.328Z,98.4
2023-05-12T08:54:55.826Z,98.2
2023-05-12T08:59:57.148Z,97.8
2023-05-12T09:05:03.484Z,97.3
2023-05-12T09:10:13.373Z,97.2
2023-05-12T09:20:30.981Z,96.9
2023-05-12T09:25:19.324Z,97.0
2023-05-12T09:30:35.676Z,96.9
2023-05-12T09:35:42.087Z,96.9
2023-05-12T09:40:48.560Z,96.7
2023-05-12T09:45:54.981Z,96.5
2023-05-12T09:51:01.327Z,96.1
2023-05-12T09:56:07.713Z,95.8
2023-05-12T10:06:10.440Z,94.9
2023-05-12T10:11:16.802Z,94.8
2023-05-12T10:17:11.689Z,94.5
2023-05-12T10:21:38.693Z,94.3
2023-05-12T10:26:36.029Z,94.5
2023-05-12T10:31:52.586Z,93.9
2023-05-12T10:42:05.195Z,92.9
2023-05-12T10:48:21.700Z,92.7
2023-05-12T10:52:21.563Z,92.7
2023-05-12T10:57:28.254Z,92.6
2023-05-12T11:02:36.718Z,92.5
2023-05-12T11:12:51.229Z,91.5
2023-05-12T11:17:56.636Z,90.9
2023-05-12T11:23:04.087Z,90.0
2023-05-12T11:28:10.368Z,89.2
2023-05-12T11:33:16.805Z,88.8
2023-05-12T11:38:13.162Z,86.3
2023-05-12T11:43:29.574Z,86.7
2023-05-12T11:48:35.951Z,85.8
2023-05-12T11:53:43.935Z,85.2
2023-05-12T11:59:04.311Z,85.6
2023-05-12T12:03:56.755Z,84.4
2023-05-12T12:09:23.136Z,85.4
2023-05-12T12:14:12.997Z,85.4
2023-05-12T12:19:19.460Z,84.9
2023-05-12T12:24:25.990Z,85.2
2023-05-12T12:30:34.401Z,84.9
2023-05-12T12:34:38.623Z,85.2
2023-05-12T12:40:05.126Z,85.3
2023-05-12T12:44:41.405Z,86.8
2023-05-12T12:49:57.823Z,86.4
2023-05-12T12:55:07.772Z,86.1
2023-05-12T13:00:04.091Z,85.8
2023-05-12T13:05:20.970Z,85.1
2023-05-12T13:10:26.962Z,86.0
2023-05-12T13:15:23.503Z,85.7
2023-05-12T13:20:39.676Z,85.4
2023-05-12T13:25:46.065Z,85.6
2023-05-12T13:30:52.640Z,85.3
2023-05-12T13:35:48.933Z,84.8
2023-05-12T13:41:09.381Z,83.5
2023-05-12T13:51:08.083Z,84.4
2023-05-12T13:56:24.550Z,83.6
2023-05-12T14:02:14.958Z,83.4
2023-05-12T14:06:57.271Z,83.6
2023-05-12T14:11:43.688Z,84.4
2023-05-12T14:16:50.115Z,82.7
2023-05-12T14:21:56.374Z,82.5
2023-05-12T14:27:02.830Z,76.4
2023-05-12T14:32:29.357Z,77.6
2023-05-12T14:37:05.654Z,78.9
2023-05-12T14:42:12.139Z,80.1
2023-05-12T14:47:48.550Z,81.6
2023-05-12T14:57:41.242Z,82.9
2023-05-12T15:03:11.896Z,83.4
2023-05-12T15:07:54.002Z,83.0
2023-05-12T15:13:20.555Z,81.7
2023-05-12T15:18:30.835Z,81.4
2023-05-12T15:23:13.142Z,82.1
2023-05-12T15:28:43.758Z,82.4
2023-05-12T15:33:17.133Z,81.6
2023-05-12T15:38:33.530Z,81.5
2023-05-12T15:43:41.495Z,80.0
2023-05-12T15:54:29.856Z,79.8
2023-05-12T15:59:02.156Z,80.9
2023-05-12T16:04:08.654Z,79.7
2023-05-12T16:14:41.383Z,80.3
2023-05-12T16:19:27.762Z,80.8
2023-05-12T16:24:54.156Z,80.5
2023-05-12T16:29:30.512Z,81.1
2023-05-12T16:35:07.030Z,82.2
2023-05-12T16:44:59.720Z,83.2
2023-05-12T16:49:56.194Z,81.8
2023-05-12T17:00:08.944Z,83.2
2023-05-12T17:06:09.462Z,84.1
2023-05-12T17:10:55.839Z,83.7
2023-05-12T17:25:50.896Z,84.8
2023-05-12T17:30:57.325Z,84.6
2023-05-12T17:36:27.731Z,84.7
2023-05-12T17:46:36.756Z,84.3
2023-05-12T18:01:36.036Z,84.3
2023-05-12T18:06:42.435Z,84.4
2023-05-12T18:11:48.880Z,84.7
2023-05-12T18:16:55.339Z,84.9
2023-05-12T18:22:25.771Z,85.1
2023-05-12T18:27:28.105Z,85.4
2023-05-12T18:32:14.471Z,85.5
2023-05-12T18:37:20.864Z,85.7
2023-05-12T18:42:28.342Z,85.7
2023-05-12T18:47:36.879Z,85.7
2023-05-12T18:53:03.304Z,85.5
2023-05-12T18:58:09.825Z,85.7
2023-05-12T19:04:10.223Z,85.6
2023-05-12T19:08:46.550Z,85.7
2023-05-12T19:13:32.921Z,86.2
2023-05-12T19:18:15.228Z,85.8
2023-05-12T19:23:21.861Z,85.7
2023-05-12T19:29:42.448Z,85.7
2023-05-12T19:33:34.665Z,85.7
2023-05-12T19:39:05.103Z,85.7
2023-05-12T19:43:47.471Z,85.9
2023-05-12T19:49:31.917Z,86.0
2023-05-12T19:54:02.333Z,85.9
2023-05-12T20:04:59.216Z,86.1
2023-05-12T20:09:45.732Z,86.1
2023-05-12T20:14:28.057Z,86.2
2023-05-12T20:19:34.482Z,86.2
2023-05-12T20:24:41.116Z,86.2
2023-05-12T20:34:53.860Z,86.4
2023-05-12T20:40:00.271Z,86.3
2023-05-12T20:45:06.607Z,86.4
2023-05-12T20:50:13.064Z,86.4
2023-05-12T20:55:19.642Z,86.4
2023-05-12T21:05:32.119Z,86.6
2023-05-12T21:10:52.542Z,86.7
2023-05-12T21:16:04.931Z,86.8
2023-05-12T21:21:15.315Z,86.7
2023-05-12T21:25:47.749Z,86.8
2023-05-12T21:32:16.353Z,86.8
2023-05-12T21:36:54.656Z,86.6
2023-05-12T21:41:16.913Z,86.8
2023-05-12T21:46:23.372Z,86.9
2023-05-12T21:52:55.883Z,86.8
2023-05-12T21:57:00.143Z,86.8
2023-05-12T22:11:55.278Z,87.0
2023-05-12T22:22:07.989Z,86.9
2023-05-12T22:28:07.279Z,87.1
2023-05-12T22:32:23.871Z,86.9
2023-05-12T22:37:54.221Z,87.0
2023-05-12T22:42:36.568Z,87.1
2023-05-12T22:47:43.026Z,87.0
2023-05-12T22:52:49.339Z,87.0
2023-05-12T22:58:19.762Z,86.8
2023-05-12T23:03:26.222Z,87.0
2023-05-12T23:08:28.520Z,86.9
2023-05-12T23:13:16.427Z,87.1
2023-05-12T23:18:22.980Z,87.0
2023-05-12T23:24:25.507Z,87.1
2023-05-12T23:33:42.151Z,87.0
2023-05-12T23:38:48.493Z,87.1
2023-05-12T23:43:55.111Z,87.0
2023-05-12T23:49:01.481Z,86.7
2023-05-12T23:59:14.407Z,86.8
